Portada
METAR-TAF:

METAR-TAF

Aeropuertos :

Túnez, Túnez

Aeropuerto Internacional de Túnez-Cartago

latitud: 36-50N, longitud: 010-14E, altitud: 3 m

Observación

El informe se hizo hace 44 minutos, a las 01:30 UTC
Viento 6 kt del sur-sureste
Temperatura 16°C
Humedad 82%
Presión 1011 hPa
Visibilidad 10 km o más
Escasas nubes a una altura de 2600 ft

METAR: DTTA 260130Z 15006KT 9999 FEW026 16/13 Q1011 NOSIG

Hora: 03:14 (02:14 UTC)

Pronóstico

El informe se hizo hace 3 horas y 9 minutos, a las 23:05 UTC
Pronóstico válido del 26 a las 00 UTC al 26 a las 24 UTC
Viento 10 kt del sureste
Visibilidad 10 km o más
sin nubes por debajo de 1500 m y sin presencia de cumulonimbus.
Temporalmente
del 26 a las 10 UTC al 26 a las 24 UTC
Viento 20 kt del sur-sureste
Visibilidad 10 km o más
Nubes dispersas a una altura de 2600 ft

TAF: DTTA 252305Z 2600/2624 14010KT CAVOK TEMPO 2610/2624 16020KT 9999 SCT026

Observaciones y pronósticos meteorológicos de más de 4000 aeropuertos (mensajes METAR y TAF).

Los puntos amarillos y rojos representan las estaciones disponibles.

Ponga el ratón en el punto deseado para ver el nombre de la estación.

Haga clic para ver las observaciones y los pronósticos meteorológicos.

Para cambiar el mapa : haga clic en los botones verdes con una cruz de color negro para hacer un zoom, en el botón verde con un guión para alejar o en las flechas verdes para mapas adyacentes.


METAR-TAF: